Time;durP1;ratioP1;P1;durP2;ratioP2;P2;SDS_P1;SDS_P2;PMS_P1;PMS_P2;Temp;Humidity;BMP_temperature;BMP_pressure;BME280_temperature;BME280_humidity;BME280_pressure;Samples;Min_cycle;Max_cycle;Signal;HPM_P1;HPM_P2
2023/06/11 00:00:23;;;;;;;;;;;;;;;;;;5027939;28;19932;-49
2023/06/11 05:10:07;;;;;;;;;;;;;;;;;;5039084;28;19925;-49
2023/06/11 05:12:33;;;;;;;;;;;;;;;;;;5047846;28;20398;-49
2023/06/11 05:14:59;;;;;;;;;;;;;;;;;;5047536;28;20274;-47
2023/06/11 05:17:25;;;;;;;;;;;;;;;;;;5047597;28;19909;-49
2023/06/11 05:19:51;;;;;;;;;;;;;;;;;;5047204;28;19908;-51
2023/06/11 05:22:17;;;;;;;;;;;;;;;;;;5047394;28;20344;-48
2023/06/11 05:24:43;;;;;;;;;;;;;;;;;;5047511;28;19955;-46
2023/06/11 05:27:10;;;;;;;;;;;;;;;;;;5047470;28;20347;-48
2023/06/11 05:29:37;;;;;;;;;;;;;;;;;;5047204;28;19931;-50
2023/06/11 05:32:03;;;;;;;;;;;;;;;;;;5048947;28;19912;-48
2023/06/11 05:34:30;;;;;;;;;;;;;;;;;;5033551;28;20320;-49
2023/06/11 05:36:56;;;;;;;;;;;;;;;;;;5051138;28;19909;-47
2023/06/11 05:39:22;;;;;;;;;;;;;;;;;;5050525;28;20330;-49
2023/06/11 05:41:48;;;;;;;;;;;;;;;;;;5051003;28;20083;-51
2023/06/11 05:44:13;;;;;;;;;;;;;;;;;;5050792;28;20439;-50
2023/06/11 05:46:40;;;;;;;;;;;;;;;;;;5048642;28;20391;-50
2023/06/11 05:49:06;;;;;;;;;;;;;;;;;;5033495;28;20413;-50
2023/06/11 05:51:32;;;;;;;;;;;;;;;;;;5034234;28;19921;-48
2023/06/11 05:54:01;;;;;;;;;;;;;;;;;;5033700;28;20011;-50
2023/06/11 05:56:27;;;;;;;;;;;;;;;;;;5030224;28;19957;-47
2023/06/11 05:58:53;;;;;;;;;;;;;;;;;;5013471;28;19909;-48
2023/06/11 06:01:21;;;;;;;;;;;;;;;;;;5030571;28;19908;-49
2023/06/11 06:03:47;;;;;;;;;;;;;;;;;;5013167;28;19952;-47
2023/06/11 06:06:13;;;;;;;;;;;;;;;;;;5030719;28;20403;-50
2023/06/11 06:08:39;;;;;;;;;;;;;;;;;;5030563;28;19909;-49
2023/06/11 06:11:05;;;;;;;;;;;;;;;;;;5030327;28;19947;-50
2023/06/11 06:13:31;;;;;;;;;;;;;;;;;;5031122;28;19912;-50
2023/06/11 06:15:57;;;;;;;;;;;;;;;;;;5030271;28;19963;-46
2023/06/11 06:18:22;;;;;;;;;;;;;;;;;;5030570;28;19910;-50
2023/06/11 06:20:48;;;;;;;;;;;;;;;;;;5030194;28;20355;-47
2023/06/11 06:23:14;;;;;;;;;;;;;;;;;;5030218;28;19913;-50
2023/06/11 06:25:41;;;;;;;;;;;;;;;;;;5029930;28;19944;-50
2023/06/11 06:28:07;;;;;;;;;;;;;;;;;;5030262;28;19909;-48
2023/06/11 06:30:34;;;;;;;;;;;;;;;;;;5030099;28;19916;-48
2023/06/11 06:32:59;;;;;;;;;;;;;;;;;;5030494;28;19917;-48
2023/06/11 06:35:25;;;;;;;;;;;;;;;;;;5030103;28;20261;-49
2023/06/11 06:37:51;;;;;;;;;;;;;;;;;;5029971;28;19916;-49
2023/06/11 06:40:17;;;;;;;;;;;;;;;;;;5030053;28;19978;-50
2023/06/11 06:42:44;;;;;;;;;;;;;;;;;;5029488;28;20376;-48
2023/06/11 06:45:11;;;;;;;;;;;;;;;;;;5029746;28;20024;-50
2023/06/11 06:47:37;;;;;;;;;;;;;;;;;;5029826;28;19949;-48
2023/06/11 06:50:03;;;;;;;;;;;;;;;;;;5030001;28;20022;-48
2023/06/11 06:52:30;;;;;;;;;;;;;;;;;;5029843;28;19920;-50
2023/06/11 06:54:56;;;;;;;;;;;;;;;;;;5029681;28;19941;-47
2023/06/11 06:57:22;;;;;;;;;;;;;;;;;;5029558;28;20013;-50
2023/06/11 06:59:48;;;;;;;;;;;;;;;;;;5029469;28;19924;-50
2023/06/11 07:02:15;;;;;;;;;;;;;;;;;;5029292;28;20308;-49
2023/06/11 07:04:41;;;;;;;;;;;;;;;;;;5029432;28;19967;-46
2023/06/11 07:07:07;;;;;;;;;;;;;;;;;;5029509;28;19940;-50
2023/06/11 07:09:33;;;;;;;;;;;;;;;;;;5029669;28;19937;-47
2023/06/11 07:11:59;;;;;;;;;;;;;;;;;;5029303;28;20543;-50
2023/06/11 07:14:25;;;;;;;;;;;;;;;;;;5029137;28;19913;-49
2023/06/11 07:16:51;;;;;;;;;;;;;;;;;;5029343;28;19913;-50
2023/06/11 07:19:17;;;;;;;;;;;;;;;;;;5028969;28;19917;-47
2023/06/11 07:21:43;;;;;;;;;;;;;;;;;;5029175;28;19909;-51
2023/06/11 07:24:11;;;;;;;;;;;;;;;;;;5029092;28;19913;-47
2023/06/11 07:26:37;;;;;;;;;;;;;;;;;;5028954;28;19924;-47
2023/06/11 07:29:04;;;;;;;;;;;;;;;;;;5029195;28;19909;-49
2023/06/11 07:31:30;;;;;;;;;;;;;;;;;;5029190;28;19960;-49
2023/06/11 07:33:57;;;;;;;;;;;;;;;;;;5028783;28;19955;-48
2023/06/11 07:36:23;;;;;;;;;;;;;;;;;;5028837;28;19909;-50
2023/06/11 07:38:48;;;;;;;;;;;;;;;;;;5028824;28;19909;-49
2023/06/11 07:41:15;;;;;;;;;;;;;;;;;;5028871;28;19916;-49
2023/06/11 07:43:41;;;;;;;;;;;;;;;;;;5028513;28;19916;-49
2023/06/11 07:46:08;;;;;;;;;;;;;;;;;;5028851;28;19913;-49
2023/06/11 07:48:35;;;;;;;;;;;;;;;;;;5028354;28;19909;-46
2023/06/11 07:51:01;;;;;;;;;;;;;;;;;;5028964;28;19937;-49
2023/06/11 07:53:27;;;;;;;;;;;;;;;;;;5028673;28;19909;-50
2023/06/11 07:55:56;;;;;;;;;;;;;;;;;;5027877;28;19910;-47
2023/06/11 07:58:23;;;;;;;;;;;;;;;;;;5028040;28;20277;-48
2023/06/11 08:00:51;;;;;;;;;;;;;;;;;;5028530;28;19920;-49
2023/06/11 08:03:16;;;;;;;;;;;;;;;;;;5028882;28;20051;-46
2023/06/11 08:05:42;;;;;;;;;;;;;;;;;;5028240;28;20435;-50
2023/06/11 08:08:08;;;;;;;;;;;;;;;;;;5028460;28;19909;-50
2023/06/11 08:10:34;;;;;;;;;;;;;;;;;;5028063;28;19928;-47
2023/06/11 08:13:00;;;;;;;;;;;;;;;;;;5028178;28;19936;-49
2023/06/11 08:15:26;;;;;;;;;;;;;;;;;;5028582;28;20330;-50
2023/06/11 08:17:53;;;;;;;;;;;;;;;;;;5028241;28;19920;-49
2023/06/11 08:20:19;;;;;;;;;;;;;;;;;;5028276;28;19914;-50
2023/06/11 08:22:46;;;;;;;;;;;;;;;;;;5028013;28;20458;-51
2023/06/11 08:25:12;;;;;;;;;;;;;;;;;;5028077;28;20310;-47
2023/06/11 08:27:38;;;;;;;;;;;;;;;;;;5027882;28;20376;-49
2023/06/11 08:30:05;;;;;;;;;;;;;;;;;;5028134;28;19916;-46
2023/06/11 08:32:31;;;;;;;;;;;;;;;;;;5028146;28;19914;-49
2023/06/11 08:34:57;;;;;;;;;;;;;;;;;;5028037;28;20299;-47
2023/06/11 08:37:23;;;;;;;;;;;;;;;;;;5027788;28;20376;-49
2023/06/11 08:39:49;;;;;;;;;;;;;;;;;;5027792;28;19958;-47
2023/06/11 08:42:15;;;;;;;;;;;;;;;;;;5027710;28;19932;-46
2023/06/11 08:44:41;;;;;;;;;;;;;;;;;;5027680;28;20387;-47
2023/06/11 08:47:09;;;;;;;;;;;;;;;;;;5027744;28;19909;-48
2023/06/11 08:49:35;;;;;;;;;;;;;;;;;;5027356;28;19913;-50
2023/06/11 08:52:01;;;;;;;;;;;;;;;;;;5027907;28;19913;-49
2023/06/11 08:54:27;;;;;;;;;;;;;;;;;;5027664;28;19956;-49
2023/06/11 08:56:54;;;;;;;;;;;;;;;;;;5027448;28;19909;-50
2023/06/11 08:59:20;;;;;;;;;;;;;;;;;;5027542;28;20299;-46
2023/06/11 09:01:50;;;;;;;;;;;;;;;;;;5027634;28;20380;-47
2023/06/11 09:04:16;;;;;;;;;;;;;;;;;;5027419;28;19917;-52
2023/06/11 09:06:42;;;;;;;;;;;;;;;;;;5030139;28;20036;-47
2023/06/11 09:09:08;;;;;;;;;;;;;;;;;;5031459;28;20439;-50
2023/06/11 09:11:34;;;;;;;;;;;;;;;;;;5014980;28;19924;-47
2023/06/11 09:14:00;;;;;;;;;;;;;;;;;;5011578;28;19920;-49
2023/06/11 09:16:26;;;;;;;;;;;;;;;;;;5011721;28;19916;-50
2023/06/11 09:18:53;;;;;;;;;;;;;;;;;;5011348;28;19920;-49
2023/06/11 09:21:18;;;;;;;;;;;;;;;;;;5011819;28;20392;-49
2023/06/11 09:23:46;;;;;;;;;;;;;;;;;;5011528;28;19914;-49
2023/06/11 09:26:15;;;;;;;;;;;;;;;;;;5011287;28;19914;-48
2023/06/11 09:28:41;;;;;;;;;;;;;;;;;;5010915;28;19936;-52
2023/06/11 09:31:07;;;;;;;;;;;;;;;;;;5011536;28;19909;-48
2023/06/11 09:33:33;;;;;;;;;;;;;;;;;;5011340;28;20296;-49
2023/06/11 09:35:59;;;;;;;;;;;;;;;;;;5011574;28;19952;-48
2023/06/11 09:38:26;;;;;;;;;;;;;;;;;;5011277;28;20446;-50
2023/06/11 09:40:52;;;;;;;;;;;;;;;;;;5011247;28;20012;-49
2023/06/11 09:43:17;;;;;;;;;;;;;;;;;;5010909;28;19996;-47
2023/06/11 09:45:43;;;;;;;;;;;;;;;;;;5011063;28;19914;-50
2023/06/11 09:48:09;;;;;;;;;;;;;;;;;;5010882;28;19914;-46
2023/06/11 09:50:35;;;;;;;;;;;;;;;;;;5011174;28;19910;-47
2023/06/11 09:53:05;;;;;;;;;;;;;;;;;;5011149;28;19974;-48
2023/06/11 09:55:31;;;;;;;;;;;;;;;;;;5011189;28;19913;-46
2023/06/11 09:57:57;;;;;;;;;;;;;;;;;;5011106;28;20480;-48
2023/06/11 10:00:23;;;;;;;;;;;;;;;;;;5010506;28;19909;-50
2023/06/11 10:02:49;;;;;;;;;;;;;;;;;;5010905;28;20189;-50
2023/06/11 10:05:16;;;;;;;;;;;;;;;;;;5010571;28;19945;-48
2023/06/11 10:07:42;;;;;;;;;;;;;;;;;;5010653;28;20320;-50
2023/06/11 10:10:08;;;;;;;;;;;;;;;;;;5010363;28;19920;-49
2023/06/11 10:12:34;;;;;;;;;;;;;;;;;;5010534;28;19917;-46
2023/06/11 10:15:01;;;;;;;;;;;;;;;;;;5010862;28;19914;-49
2023/06/11 10:17:28;;;;;;;;;;;;;;;;;;5009709;28;19956;-50
2023/06/11 10:19:55;;;;;;;;;;;;;;;;;;5010458;28;19916;-47
2023/06/11 10:22:21;;;;;;;;;;;;;;;;;;5010479;28;19913;-51
2023/06/11 10:24:48;;;;;;;;;;;;;;;;;;5010153;28;19909;-47
2023/06/11 10:27:17;;;;;;;;;;;;;;;;;;5010267;28;19963;-52
2023/06/11 10:29:42;;;;;;;;;;;;;;;;;;5010133;28;19914;-48
2023/06/11 10:32:08;;;;;;;;;;;;;;;;;;5010554;28;19913;-50
2023/06/11 10:34:34;;;;;;;;;;;;;;;;;;5010088;28;19997;-47
2023/06/11 10:37:00;;;;;;;;;;;;;;;;;;5010566;28;20362;-50
2023/06/11 10:39:26;;;;;;;;;;;;;;;;;;5009888;28;19909;-49
2023/06/11 10:41:52;;;;;;;;;;;;;;;;;;5010083;28;20304;-49
2023/06/11 10:44:18;;;;;;;;;;;;;;;;;;5009939;28;20012;-50
2023/06/11 10:46:44;;;;;;;;;;;;;;;;;;5009910;28;20365;-51
2023/06/11 10:49:09;;;;;;;;;;;;;;;;;;5010122;28;19914;-50
2023/06/11 10:51:36;;;;;;;;;;;;;;;;;;5009863;28;19917;-46
2023/06/11 10:54:03;;;;;;;;;;;;;;;;;;5010085;28;19936;-49
2023/06/11 10:56:30;;;;;;;;;;;;;;;;;;5009853;28;19913;-49
2023/06/11 10:58:56;;;;;;;;;;;;;;;;;;5009500;28;19910;-48
2023/06/11 11:01:22;;;;;;;;;;;;;;;;;;5009535;28;19983;-48
2023/06/11 11:03:49;;;;;;;;;;;;;;;;;;5009941;28;19952;-49
2023/06/11 11:06:18;;;;;;;;;;;;;;;;;;5009155;28;19953;-49
2023/06/11 11:08:45;;;;;;;;;;;;;;;;;;5023679;28;19924;-47
2023/06/11 11:11:11;;;;;;;;;;;;;;;;;;5027634;28;19920;-48
2023/06/11 11:13:37;;;;;;;;;;;;;;;;;;5027516;28;20048;-49
2023/06/11 11:16:03;;;;;;;;;;;;;;;;;;5027357;28;19920;-49
2023/06/11 11:18:29;;;;;;;;;;;;;;;;;;5027407;28;19913;-49
2023/06/11 11:20:55;;;;;;;;;;;;;;;;;;5027028;28;19985;-50
2023/06/11 11:23:24;;;;;;;;;;;;;;;;;;5027205;28;19913;-49
2023/06/11 11:25:49;;;;;;;;;;;;;;;;;;5026971;28;20184;-49
2023/06/11 11:28:15;;;;;;;;;;;;;;;;;;5027478;28;19936;-51
2023/06/11 11:30:42;;;;;;;;;;;;;;;;;;5027507;28;20315;-48
2023/06/11 11:33:08;;;;;;;;;;;;;;;;;;5027523;28;19955;-51
2023/06/11 11:35:35;;;;;;;;;;;;;;;;;;5026854;28;19913;-48
2023/06/11 11:38:02;;;;;;;;;;;;;;;;;;5027434;28;19917;-47
2023/06/11 11:40:29;;;;;;;;;;;;;;;;;;5026493;28;19913;-46
2023/06/11 11:42:55;;;;;;;;;;;;;;;;;;5027337;28;19917;-48
2023/06/11 11:45:21;;;;;;;;;;;;;;;;;;5026559;28;20449;-50
2023/06/11 11:47:50;;;;;;;;;;;;;;;;;;5026850;28;19972;-49
2023/06/11 11:50:16;;;;;;;;;;;;;;;;;;5026598;28;20281;-49
2023/06/11 11:52:45;;;;;;;;;;;;;;;;;;5027264;28;19916;-51
2023/06/11 11:55:11;;;;;;;;;;;;;;;;;;5027361;28;19956;-50
2023/06/11 11:57:37;;;;;;;;;;;;;;;;;;5026550;28;19953;-50
2023/06/11 12:00:04;;;;;;;;;;;;;;;;;;5026202;28;19909;-51
2023/06/11 12:02:31;;;;;;;;;;;;;;;;;;5026671;28;20384;-50
2023/06/11 12:05:00;;;;;;;;;;;;;;;;;;5026379;28;19909;-47
2023/06/11 12:07:26;;;;;;;;;;;;;;;;;;5026921;28;19988;-51
2023/06/11 12:09:52;;;;;;;;;;;;;;;;;;5026112;28;19910;-50
2023/06/11 12:12:19;;;;;;;;;;;;;;;;;;5026219;28;19960;-49
2023/06/11 12:14:45;;;;;;;;;;;;;;;;;;5026089;28;19910;-50
2023/06/11 12:17:11;;;;;;;;;;;;;;;;;;5027223;28;19936;-51
2023/06/11 12:19:37;;;;;;;;;;;;;;;;;;5026032;28;19964;-50
2023/06/11 12:22:03;;;;;;;;;;;;;;;;;;5026132;28;19913;-49
2023/06/11 12:24:30;;;;;;;;;;;;;;;;;;5026196;28;20361;-49
2023/06/11 12:26:57;;;;;;;;;;;;;;;;;;5025780;28;19913;-50
2023/06/11 12:29:22;;;;;;;;;;;;;;;;;;5025912;28;19920;-48
2023/06/11 12:31:48;;;;;;;;;;;;;;;;;;5025838;28;20335;-49
2023/06/11 12:34:15;;;;;;;;;;;;;;;;;;5026433;28;19909;-47
2023/06/11 12:36:42;;;;;;;;;;;;;;;;;;5026278;28;20007;-50
2023/06/11 12:39:08;;;;;;;;;;;;;;;;;;5025297;28;19913;-48
2023/06/11 12:41:34;;;;;;;;;;;;;;;;;;5024446;28;20030;-50
2023/06/11 12:44:00;;;;;;;;;;;;;;;;;;5025107;28;19913;-49
2023/06/11 12:46:30;;;;;;;;;;;;;;;;;;5024911;28;19921;-51
2023/06/11 12:48:56;;;;;;;;;;;;;;;;;;5024940;28;19917;-49
2023/06/11 12:51:22;;;;;;;;;;;;;;;;;;5025065;28;19905;-50
2023/06/11 12:53:48;;;;;;;;;;;;;;;;;;5025009;28;20388;-46
2023/06/11 12:56:17;;;;;;;;;;;;;;;;;;5024855;28;19905;-47
2023/06/11 12:58:42;;;;;;;;;;;;;;;;;;5025417;28;19955;-49
2023/06/11 13:01:09;;;;;;;;;;;;;;;;;;5024767;28;19940;-47
2023/06/11 13:03:35;;;;;;;;;;;;;;;;;;5025063;28;19959;-50
2023/06/11 13:06:01;;;;;;;;;;;;;;;;;;5024388;28;19967;-50
2023/06/11 13:08:28;;;;;;;;;;;;;;;;;;5026678;28;19916;-49
2023/06/11 13:10:54;;;;;;;;;;;;;;;;;;5025058;28;19960;-49
2023/06/11 13:13:20;;;;;;;;;;;;;;;;;;5025184;28;19967;-51
2023/06/11 13:15:46;;;;;;;;;;;;;;;;;;5025081;28;20382;-47
2023/06/11 13:18:12;;;;;;;;;;;;;;;;;;5024940;28;20315;-46
2023/06/11 13:20:38;;;;;;;;;;;;;;;;;;5024785;28;20146;-50
2023/06/11 13:23:04;;;;;;;;;;;;;;;;;;5024893;28;19913;-50
2023/06/11 13:25:30;;;;;;;;;;;;;;;;;;5024345;28;19924;-47
2023/06/11 13:27:55;;;;;;;;;;;;;;;;;;5024775;28;20419;-49
2023/06/11 13:30:21;;;;;;;;;;;;;;;;;;5023491;28;19967;-47
2023/06/11 13:32:47;;;;;;;;;;;;;;;;;;5024147;28;20493;-50
2023/06/11 13:35:13;;;;;;;;;;;;;;;;;;5025439;28;19917;-51
2023/06/11 13:37:39;;;;;;;;;;;;;;;;;;5026265;28;19909;-50
2023/06/11 13:40:05;;;;;;;;;;;;;;;;;;5026123;28;20391;-50
2023/06/11 13:42:31;;;;;;;;;;;;;;;;;;5026325;28;19909;-50
2023/06/11 13:44:59;;;;;;;;;;;;;;;;;;5023570;28;19913;-48
2023/06/11 13:47:25;;;;;;;;;;;;;;;;;;5025129;28;19914;-51
2023/06/11 13:49:51;;;;;;;;;;;;;;;;;;5026360;28;20045;-49
2023/06/11 13:52:18;;;;;;;;;;;;;;;;;;5026626;28;19964;-51
2023/06/11 13:54:44;;;;;;;;;;;;;;;;;;5029726;28;19940;-50
2023/06/11 13:57:10;;;;;;;;;;;;;;;;;;5029782;28;19913;-51
2023/06/11 13:59:37;;;;;;;;;;;;;;;;;;5016648;28;19914;-49
2023/06/11 14:02:02;;;;;;;;;;;;;;;;;;5027556;28;19971;-50
2023/06/11 14:04:28;;;;;;;;;;;;;;;;;;5027829;28;20399;-48
2023/06/11 14:06:54;;;;;;;;;;;;;;;;;;5028500;28;20158;-48
2023/06/11 14:09:20;;;;;;;;;;;;;;;;;;5027307;28;20004;-50
2023/06/11 14:11:46;;;;;;;;;;;;;;;;;;5027558;28;20422;-47
2023/06/11 14:14:12;;;;;;;;;;;;;;;;;;5027963;28;19962;-48
2023/06/11 14:16:39;;;;;;;;;;;;;;;;;;5027599;28;19967;-47
2023/06/11 14:19:07;;;;;;;;;;;;;;;;;;5028533;28;19909;-51
2023/06/11 14:21:34;;;;;;;;;;;;;;;;;;5028530;28;19941;-50
2023/06/11 14:24:00;;;;;;;;;;;;;;;;;;5028493;28;19913;-51
2023/06/11 14:26:27;;;;;;;;;;;;;;;;;;5029400;28;20396;-50
2023/06/11 14:28:53;;;;;;;;;;;;;;;;;;5028978;28;19948;-50
2023/06/11 14:31:20;;;;;;;;;;;;;;;;;;5028778;28;20392;-51
2023/06/11 14:33:47;;;;;;;;;;;;;;;;;;5027234;28;19919;-52
2023/06/11 14:36:13;;;;;;;;;;;;;;;;;;5027067;28;20340;-51
2023/06/11 14:38:40;;;;;;;;;;;;;;;;;;5026868;28;19944;-51
2023/06/11 14:41:06;;;;;;;;;;;;;;;;;;5027182;28;20351;-49
2023/06/11 14:43:32;;;;;;;;;;;;;;;;;;5025555;28;19917;-51
2023/06/11 14:45:58;;;;;;;;;;;;;;;;;;5028707;28;19921;-52
2023/06/11 14:48:24;;;;;;;;;;;;;;;;;;5029398;28;19913;-50
2023/06/11 14:50:50;;;;;;;;;;;;;;;;;;5028676;28;19916;-52
2023/06/11 14:53:16;;;;;;;;;;;;;;;;;;5028578;28;19913;-51
2023/06/11 14:55:42;;;;;;;;;;;;;;;;;;5028728;28;19960;-52
2023/06/11 14:58:08;;;;;;;;;;;;;;;;;;5028722;28;19945;-51
2023/06/11 15:00:34;;;;;;;;;;;;;;;;;;5028629;28;19913;-51
2023/06/11 15:03:00;;;;;;;;;;;;;;;;;;5028359;28;20004;-47
2023/06/11 15:05:26;;;;;;;;;;;;;;;;;;5029206;28;20008;-52
2023/06/11 15:07:52;;;;;;;;;;;;;;;;;;5028496;28;20019;-51
2023/06/11 15:10:18;;;;;;;;;;;;;;;;;;5027941;28;19913;-49
2023/06/11 15:12:44;;;;;;;;;;;;;;;;;;5028410;28;19932;-50
2023/06/11 15:15:10;;;;;;;;;;;;;;;;;;5029302;28;19920;-51
2023/06/11 15:17:36;;;;;;;;;;;;;;;;;;5028732;28;19952;-50
2023/06/11 15:20:04;;;;;;;;;;;;;;;;;;5028187;28;19996;-48
2023/06/11 15:22:30;;;;;;;;;;;;;;;;;;5028329;28;19941;-49
2023/06/11 15:24:56;;;;;;;;;;;;;;;;;;5028130;28;19955;-51
2023/06/11 15:27:22;;;;;;;;;;;;;;;;;;5028077;28;19947;-47
2023/06/11 15:29:48;;;;;;;;;;;;;;;;;;5028020;28;20006;-51
2023/06/11 15:32:15;;;;;;;;;;;;;;;;;;5028255;28;19913;-50
2023/06/11 15:34:41;;;;;;;;;;;;;;;;;;5028177;28;19917;-50
2023/06/11 15:37:07;;;;;;;;;;;;;;;;;;5028360;28;19918;-51
2023/06/11 15:39:33;;;;;;;;;;;;;;;;;;5027785;28;19913;-51
2023/06/11 15:42:00;;;;;;;;;;;;;;;;;;5028040;28;19917;-50
2023/06/11 15:44:26;;;;;;;;;;;;;;;;;;5027920;28;19916;-50
2023/06/11 15:46:52;;;;;;;;;;;;;;;;;;5025881;28;19948;-50
2023/06/11 15:49:19;;;;;;;;;;;;;;;;;;5026723;28;19944;-51
2023/06/11 15:51:45;;;;;;;;;;;;;;;;;;5025754;28;19917;-48
2023/06/11 15:54:11;;;;;;;;;;;;;;;;;;5024354;28;19943;-49
2023/06/11 15:56:39;;;;;;;;;;;;;;;;;;5027531;28;19935;-51
2023/06/11 15:59:05;;;;;;;;;;;;;;;;;;5024591;28;20527;-52
2023/06/11 16:01:31;;;;;;;;;;;;;;;;;;5025733;28;19959;-52
2023/06/11 16:03:58;;;;;;;;;;;;;;;;;;5025350;28;19971;-50
2023/06/11 16:06:25;;;;;;;;;;;;;;;;;;5026491;28;19920;-48
2023/06/11 16:08:51;;;;;;;;;;;;;;;;;;5024584;28;20542;-51
2023/06/11 16:11:17;;;;;;;;;;;;;;;;;;5025990;28;19999;-52
2023/06/11 16:13:43;;;;;;;;;;;;;;;;;;5026875;28;19937;-52
2023/06/11 16:16:09;;;;;;;;;;;;;;;;;;5028596;28;19913;-51
2023/06/11 16:18:35;;;;;;;;;;;;;;;;;;5038284;28;19949;-50
2023/06/11 16:21:03;;;;;;;;;;;;;;;;;;5025848;28;20409;-52
2023/06/11 16:23:29;;;;;;;;;;;;;;;;;;5025903;28;19960;-48
2023/06/11 16:25:55;;;;;;;;;;;;;;;;;;5008489;28;19921;-50
2023/06/11 16:28:21;;;;;;;;;;;;;;;;;;5033305;28;20319;-50
2023/06/11 16:30:47;;;;;;;;;;;;;;;;;;5030660;28;19975;-50
2023/06/11 16:33:13;;;;;;;;;;;;;;;;;;5024685;28;19966;-52
2023/06/11 16:35:39;;;;;;;;;;;;;;;;;;5027625;28;19948;-52
2023/06/11 16:38:05;;;;;;;;;;;;;;;;;;5026526;28;19917;-50
2023/06/11 16:40:31;;;;;;;;;;;;;;;;;;5022534;28;20020;-52
2023/06/11 16:42:57;;;;;;;;;;;;;;;;;;5025844;28;19917;-52
2023/06/11 16:45:23;;;;;;;;;;;;;;;;;;5026924;28;20372;-51
2023/06/11 16:47:49;;;;;;;;;;;;;;;;;;5026825;28;19943;-51
2023/06/11 16:50:15;;;;;;;;;;;;;;;;;;5022895;28;20427;-52
2023/06/11 16:52:41;;;;;;;;;;;;;;;;;;5026045;28;20004;-52
2023/06/11 16:55:08;;;;;;;;;;;;;;;;;;5024659;28;19913;-49
2023/06/11 16:57:35;;;;;;;;;;;;;;;;;;5023415;28;19917;-51
2023/06/11 17:00:01;;;;;;;;;;;;;;;;;;5025801;28;20020;-48
2023/06/11 17:02:31;;;;;;;;;;;;;;;;;;5025146;28;20012;-50
2023/06/11 17:04:57;;;;;;;;;;;;;;;;;;5026671;28;19909;-50
2023/06/11 17:07:23;;;;;;;;;;;;;;;;;;5025230;28;19923;-50
2023/06/11 17:09:49;;;;;;;;;;;;;;;;;;5026111;28;19909;-51
2023/06/11 17:12:16;;;;;;;;;;;;;;;;;;5025954;28;19952;-52
2023/06/11 17:14:42;;;;;;;;;;;;;;;;;;5026468;28;20525;-50
2023/06/11 17:17:08;;;;;;;;;;;;;;;;;;5026491;28;19913;-52
2023/06/11 17:19:34;;;;;;;;;;;;;;;;;;5022060;28;19948;-51
2023/06/11 17:22:00;;;;;;;;;;;;;;;;;;5014898;28;19917;-49
2023/06/11 17:24:26;;;;;;;;;;;;;;;;;;5021954;28;20013;-51
2023/06/11 17:26:52;;;;;;;;;;;;;;;;;;5016064;28;19917;-50
2023/06/11 17:29:18;;;;;;;;;;;;;;;;;;5030256;28;19925;-48
2023/06/11 17:31:44;;;;;;;;;;;;;;;;;;5026178;28;19936;-52
2023/06/11 17:34:10;;;;;;;;;;;;;;;;;;5026751;28;19921;-52
2023/06/11 17:36:36;;;;;;;;;;;;;;;;;;5030054;28;19916;-51
2023/06/11 17:39:02;;;;;;;;;;;;;;;;;;5029690;28;19910;-51
2023/06/11 17:41:29;;;;;;;;;;;;;;;;;;5029187;28;19913;-52
2023/06/11 17:43:54;;;;;;;;;;;;;;;;;;5029176;28;19920;-51
2023/06/11 17:46:20;;;;;;;;;;;;;;;;;;5029654;28;19921;-50
2023/06/11 17:48:46;;;;;;;;;;;;;;;;;;5029897;28;19932;-50
2023/06/11 17:51:12;;;;;;;;;;;;;;;;;;5029154;28;19913;-51
2023/06/11 17:53:38;;;;;;;;;;;;;;;;;;5030201;28;19983;-50
2023/06/11 17:56:04;;;;;;;;;;;;;;;;;;5028144;28;20066;-49
2023/06/11 17:58:30;;;;;;;;;;;;;;;;;;5026759;28;19917;-51
2023/06/11 18:00:56;;;;;;;;;;;;;;;;;;5027926;28;20540;-51
2023/06/11 18:03:22;;;;;;;;;;;;;;;;;;5025385;28;20404;-51
2023/06/11 18:05:48;;;;;;;;;;;;;;;;;;5023308;28;19967;-48
2023/06/11 18:08:15;;;;;;;;;;;;;;;;;;5024642;28;19948;-48
2023/06/11 18:10:41;;;;;;;;;;;;;;;;;;5026059;28;19926;-52
2023/06/11 18:13:06;;;;;;;;;;;;;;;;;;5024828;28;19921;-48
2023/06/11 18:15:32;;;;;;;;;;;;;;;;;;5022562;28;19913;-49
2023/06/11 18:17:58;;;;;;;;;;;;;;;;;;5022850;28;19928;-48
2023/06/11 18:20:24;;;;;;;;;;;;;;;;;;5021712;28;19913;-49
2023/06/11 18:22:50;;;;;;;;;;;;;;;;;;5018881;28;19913;-47
2023/06/11 18:25:16;;;;;;;;;;;;;;;;;;5021525;28;20376;-49
2023/06/11 18:27:43;;;;;;;;;;;;;;;;;;5020843;28;19949;-48
2023/06/11 18:30:10;;;;;;;;;;;;;;;;;;5004619;28;19913;-51
2023/06/11 18:32:37;;;;;;;;;;;;;;;;;;5024189;28;19925;-48
2023/06/11 18:35:03;;;;;;;;;;;;;;;;;;5019389;28;20127;-50
2023/06/11 18:37:29;;;;;;;;;;;;;;;;;;5017912;28;20100;-47
2023/06/11 18:39:55;;;;;;;;;;;;;;;;;;5020923;28;19925;-47
2023/06/11 18:42:22;;;;;;;;;;;;;;;;;;5022788;28;19968;-49
2023/06/11 18:44:48;;;;;;;;;;;;;;;;;;5020654;28;19924;-50
2023/06/11 18:47:14;;;;;;;;;;;;;;;;;;5021071;28;20335;-49
2023/06/11 18:49:40;;;;;;;;;;;;;;;;;;5003122;28;19948;-51
2023/06/11 18:52:06;;;;;;;;;;;;;;;;;;5005925;28;19924;-46
2023/06/11 18:54:31;;;;;;;;;;;;;;;;;;5023600;28;19980;-51
2023/06/11 18:56:57;;;;;;;;;;;;;;;;;;5022182;28;19928;-49
2023/06/11 18:59:23;;;;;;;;;;;;;;;;;;5022525;28;19961;-48
2023/06/11 19:01:49;;;;;;;;;;;;;;;;;;5022036;28;19987;-51
2023/06/11 19:04:15;;;;;;;;;;;;;;;;;;5021757;28;19921;-50
2023/06/11 19:06:41;;;;;;;;;;;;;;;;;;5021210;28;19921;-51
2023/06/11 19:09:10;;;;;;;;;;;;;;;;;;5025666;28;19913;-50
2023/06/11 19:11:36;;;;;;;;;;;;;;;;;;5024350;28;19920;-50
2023/06/11 19:14:02;;;;;;;;;;;;;;;;;;5027353;28;19922;-48
2023/06/11 19:16:28;;;;;;;;;;;;;;;;;;5021812;28;19913;-51
2023/06/11 19:18:54;;;;;;;;;;;;;;;;;;5021776;28;19913;-48
2023/06/11 19:21:22;;;;;;;;;;;;;;;;;;5022280;28;19913;-47
2023/06/11 19:23:49;;;;;;;;;;;;;;;;;;5008575;28;19917;-47
2023/06/11 19:26:17;;;;;;;;;;;;;;;;;;5025023;28;19963;-46
2023/06/11 19:28:43;;;;;;;;;;;;;;;;;;5025778;28;20411;-47
2023/06/11 19:31:09;;;;;;;;;;;;;;;;;;5009445;28;19927;-47
2023/06/11 19:33:35;;;;;;;;;;;;;;;;;;5024806;28;19913;-48
2023/06/11 19:36:01;;;;;;;;;;;;;;;;;;5024422;28;19963;-47
2023/06/11 19:38:27;;;;;;;;;;;;;;;;;;5023144;28;20011;-48
2023/06/11 19:40:53;;;;;;;;;;;;;;;;;;5022792;28;19920;-48
2023/06/11 19:43:19;;;;;;;;;;;;;;;;;;5025224;28;19979;-48
2023/06/11 19:45:45;;;;;;;;;;;;;;;;;;5026033;28;19917;-49
2023/06/11 19:48:11;;;;;;;;;;;;;;;;;;5008607;28;19948;-50
2023/06/11 19:50:37;;;;;;;;;;;;;;;;;;5023759;28;19943;-49
2023/06/11 19:53:02;;;;;;;;;;;;;;;;;;5020894;28;20005;-47
2023/06/11 19:55:28;;;;;;;;;;;;;;;;;;5018896;28;19913;-49
2023/06/11 19:57:55;;;;;;;;;;;;;;;;;;5023749;28;19967;-48
2023/06/11 20:00:22;;;;;;;;;;;;;;;;;;4999460;28;20387;-51
2023/06/11 20:02:49;;;;;;;;;;;;;;;;;;5019465;28;19970;-49
2023/06/11 20:05:15;;;;;;;;;;;;;;;;;;5022596;28;19913;-48
2023/06/11 20:07:42;;;;;;;;;;;;;;;;;;5024808;28;20478;-47
2023/06/11 20:10:08;;;;;;;;;;;;;;;;;;5018376;28;20022;-49
2023/06/11 20:12:35;;;;;;;;;;;;;;;;;;5020740;28;19917;-50
2023/06/11 20:15:01;;;;;;;;;;;;;;;;;;5020596;28;19913;-49
2023/06/11 20:17:27;;;;;;;;;;;;;;;;;;5024689;28;19924;-50
2023/06/11 20:19:53;;;;;;;;;;;;;;;;;;5024780;28;20400;-47
2023/06/11 20:22:19;;;;;;;;;;;;;;;;;;5022330;28;19910;-50
2023/06/11 20:24:46;;;;;;;;;;;;;;;;;;5023106;28;20000;-47
2023/06/11 20:27:12;;;;;;;;;;;;;;;;;;5021555;28;19940;-51
2023/06/11 20:29:39;;;;;;;;;;;;;;;;;;5011420;28;20389;-48
2023/06/11 20:32:05;;;;;;;;;;;;;;;;;;4987475;28;19921;-50
2023/06/11 20:34:31;;;;;;;;;;;;;;;;;;5001402;28;20436;-48
2023/06/11 20:36:56;;;;;;;;;;;;;;;;;;5020066;28;19924;-47
2023/06/11 20:39:22;;;;;;;;;;;;;;;;;;5024460;28;19924;-47
2023/06/11 20:41:48;;;;;;;;;;;;;;;;;;5022314;28;20380;-47
2023/06/11 20:44:14;;;;;;;;;;;;;;;;;;5007037;28;19967;-49
2023/06/11 20:46:40;;;;;;;;;;;;;;;;;;5024246;28;19948;-46
2023/06/11 20:49:08;;;;;;;;;;;;;;;;;;5022225;28;19921;-48
2023/06/11 20:51:34;;;;;;;;;;;;;;;;;;5021548;28;20326;-47
2023/06/11 20:54:00;;;;;;;;;;;;;;;;;;5020098;28;19921;-46
2023/06/11 20:56:26;;;;;;;;;;;;;;;;;;5021072;28;19910;-45
2023/06/11 20:58:53;;;;;;;;;;;;;;;;;;5005948;28;19917;-44
2023/06/11 21:01:20;;;;;;;;;;;;;;;;;;5021632;28;19913;-45
2023/06/11 21:03:47;;;;;;;;;;;;;;;;;;5026930;28;19984;-45
2023/06/11 21:06:13;;;;;;;;;;;;;;;;;;5025837;28;19921;-46
2023/06/11 21:08:39;;;;;;;;;;;;;;;;;;5035695;28;20284;-49
2023/06/11 21:11:05;;;;;;;;;;;;;;;;;;5028196;28;20374;-48
2023/06/11 21:13:31;;;;;;;;;;;;;;;;;;5008316;28;20420;-47
2023/06/11 21:15:57;;;;;;;;;;;;;;;;;;5027614;28;19909;-49
2023/06/11 21:18:24;;;;;;;;;;;;;;;;;;5027833;28;20016;-46
2023/06/11 21:20:50;;;;;;;;;;;;;;;;;;5009401;28;19919;-47
2023/06/11 21:23:19;;;;;;;;;;;;;;;;;;5009681;28;19909;-45
2023/06/11 21:25:46;;;;;;;;;;;;;;;;;;5027515;28;19913;-47
2023/06/11 21:28:13;;;;;;;;;;;;;;;;;;5027338;28;19959;-48
2023/06/11 21:30:40;;;;;;;;;;;;;;;;;;5027545;28;20638;-48
2023/06/11 21:33:06;;;;;;;;;;;;;;;;;;5027729;28;19913;-48
2023/06/11 21:35:33;;;;;;;;;;;;;;;;;;5027357;28;20003;-48
2023/06/11 21:37:59;;;;;;;;;;;;;;;;;;5027074;28;19905;-46
2023/06/11 21:40:25;;;;;;;;;;;;;;;;;;5009477;28;19909;-48
2023/06/11 21:42:50;;;;;;;;;;;;;;;;;;5026836;28;19955;-45
2023/06/11 21:45:17;;;;;;;;;;;;;;;;;;5027345;28;19909;-48